sensor_id;sensor_type;location;lat;lon;timestamp;temperature;humidity
11619;DHT22;5865;48.776;9.280;2022-12-29T00:09:16;7.10;99.90
11619;DHT22;5865;48.776;9.280;2022-12-29T00:14:11;7.10;99.90
11619;DHT22;5865;48.776;9.280;2022-12-29T00:19:23;7.30;99.90
11619;DHT22;5865;48.776;9.280;2022-12-29T00:33:11;7.40;99.90
11619;DHT22;5865;48.776;9.280;2022-12-29T00:35:59;7.40;99.90
11619;DHT22;5865;48.776;9.280;2022-12-29T01:43:53;8.60;99.90
11619;DHT22;5865;48.776;9.280;2022-12-29T01:46:26;8.50;99.90
11619;DHT22;5865;48.776;9.280;2022-12-29T01:48:58;8.50;99.90
11619;DHT22;5865;48.776;9.280;2022-12-29T01:51:28;8.50;99.90
11619;DHT22;5865;48.776;9.280;2022-12-29T01:53:58;8.60;99.90
11619;DHT22;5865;48.776;9.280;2022-12-29T01:59:00;8.80;99.90
11619;DHT22;5865;48.776;9.280;2022-12-29T02:04:00;8.90;99.90
11619;DHT22;5865;48.776;9.280;2022-12-29T02:06:31;8.80;99.90
11619;DHT22;5865;48.776;9.280;2022-12-29T02:11:29;9.00;99.90
11619;DHT22;5865;48.776;9.280;2022-12-29T02:16:38;8.90;99.90
11619;DHT22;5865;48.776;9.280;2022-12-29T02:22:09;9.20;99.90
11619;DHT22;5865;48.776;9.280;2022-12-29T02:25:15;9.10;99.90
11619;DHT22;5865;48.776;9.280;2022-12-29T02:27:53;9.30;99.90
11619;DHT22;5865;48.776;9.280;2022-12-29T02:30:44;9.50;99.90
11619;DHT22;5865;48.776;9.280;2022-12-29T02:33:42;9.40;99.90
11619;DHT22;5865;48.776;9.280;2022-12-29T02:36:21;9.30;99.90
11619;DHT22;5865;48.776;9.280;2022-12-29T02:38:59;9.30;99.90
11619;DHT22;5865;48.776;9.280;2022-12-29T02:41:32;9.30;99.90
11619;DHT22;5865;48.776;9.280;2022-12-29T02:44:04;9.30;99.90
11619;DHT22;5865;48.776;9.280;2022-12-29T02:46:40;9.30;99.90
11619;DHT22;5865;48.776;9.280;2022-12-29T02:49:29;9.30;99.90
11619;DHT22;5865;48.776;9.280;2022-12-29T02:57:11;9.40;99.90
11619;DHT22;5865;48.776;9.280;2022-12-29T02:59:40;9.30;99.90
11619;DHT22;5865;48.776;9.280;2022-12-29T03:02:27;9.30;99.90
11619;DHT22;5865;48.776;9.280;2022-12-29T03:07:45;9.40;99.90
11619;DHT22;5865;48.776;9.280;2022-12-29T03:10:22;9.40;99.90
11619;DHT22;5865;48.776;9.280;2022-12-29T03:12:59;9.40;99.90
11619;DHT22;5865;48.776;9.280;2022-12-29T03:15:53;9.20;99.90
11619;DHT22;5865;48.776;9.280;2022-12-29T03:18:39;9.10;99.90
11619;DHT22;5865;48.776;9.280;2022-12-29T03:21:12;8.90;99.90
11619;DHT22;5865;48.776;9.280;2022-12-29T03:23:43;8.80;99.90
11619;DHT22;5865;48.776;9.280;2022-12-29T03:26:14;8.70;99.90
11619;DHT22;5865;48.776;9.280;2022-12-29T03:28:46;8.90;99.90
11619;DHT22;5865;48.776;9.280;2022-12-29T03:31:20;9.20;99.90
11619;DHT22;5865;48.776;9.280;2022-12-29T03:33:51;9.20;99.90
11619;DHT22;5865;48.776;9.280;2022-12-29T03:36:27;9.20;99.90
11619;DHT22;5865;48.776;9.280;2022-12-29T03:38:59;9.20;99.90
11619;DHT22;5865;48.776;9.280;2022-12-29T03:41:30;9.30;99.90
11619;DHT22;5865;48.776;9.280;2022-12-29T04:39:08;8.80;99.90
11619;DHT22;5865;48.776;9.280;2022-12-29T05:24:46;8.50;99.90
11619;DHT22;5865;48.776;9.280;2022-12-29T05:27:14;8.50;99.90
11619;DHT22;5865;48.776;9.280;2022-12-29T05:35:08;9.20;99.90
11619;DHT22;5865;48.776;9.280;2022-12-29T05:45:31;9.00;99.90
11619;DHT22;5865;48.776;9.280;2022-12-29T05:51:09;8.90;99.90
11619;DHT22;5865;48.776;9.280;2022-12-29T06:03:50;9.10;99.90
11619;DHT22;5865;48.776;9.280;2022-12-29T06:06:19;9.30;99.90
11619;DHT22;5865;48.776;9.280;2022-12-29T06:13:59;9.90;99.90
11619;DHT22;5865;48.776;9.280;2022-12-29T06:16:27;9.90;99.90
11619;DHT22;5865;48.776;9.280;2022-12-29T06:31:17;10.50;99.90
11619;DHT22;5865;48.776;9.280;2022-12-29T06:43:34;10.10;99.90
11619;DHT22;5865;48.776;9.280;2022-12-29T06:46:25;10.10;99.90
11619;DHT22;5865;48.776;9.280;2022-12-29T06:48:52;10.10;99.90
11619;DHT22;5865;48.776;9.280;2022-12-29T06:56:13;10.10;99.90
11619;DHT22;5865;48.776;9.280;2022-12-29T06:58:41;10.10;99.90
11619;DHT22;5865;48.776;9.280;2022-12-29T07:01:07;10.30;99.90
11619;DHT22;5865;48.776;9.280;2022-12-29T07:08:33;10.40;99.90
11619;DHT22;5865;48.776;9.280;2022-12-29T07:30:55;10.10;99.90
11619;DHT22;5865;48.776;9.280;2022-12-29T07:48:30;9.70;99.90
11619;DHT22;5865;48.776;9.280;2022-12-29T08:08:22;10.50;99.90
11619;DHT22;5865;48.776;9.280;2022-12-29T08:18:21;10.90;99.90
11619;DHT22;5865;48.776;9.280;2022-12-29T08:43:11;11.60;99.90
11619;DHT22;5865;48.776;9.280;2022-12-29T08:45:41;11.60;99.90
11619;DHT22;5865;48.776;9.280;2022-12-29T09:43:11;12.60;99.90
11619;DHT22;5865;48.776;9.280;2022-12-29T09:50:46;12.80;99.90
11619;DHT22;5865;48.776;9.280;2022-12-29T09:53:19;12.80;99.90
11619;DHT22;5865;48.776;9.280;2022-12-29T09:58:41;13.00;99.90
11619;DHT22;5865;48.776;9.280;2022-12-29T10:01:17;13.10;99.90
11619;DHT22;5865;48.776;9.280;2022-12-29T10:03:50;13.10;99.90
11619;DHT22;5865;48.776;9.280;2022-12-29T10:06:25;13.20;99.90
11619;DHT22;5865;48.776;9.280;2022-12-29T10:09:00;13.10;99.90
11619;DHT22;5865;48.776;9.280;2022-12-29T10:11:38;13.00;99.90
11619;DHT22;5865;48.776;9.280;2022-12-29T10:14:19;13.00;99.90
11619;DHT22;5865;48.776;9.280;2022-12-29T10:16:59;12.90;99.90
11619;DHT22;5865;48.776;9.280;2022-12-29T10:19:40;12.90;99.90
11619;DHT22;5865;48.776;9.280;2022-12-29T10:22:40;13.00;99.90
11619;DHT22;5865;48.776;9.280;2022-12-29T10:25:13;13.00;99.90
11619;DHT22;5865;48.776;9.280;2022-12-29T10:27:43;12.90;99.90
11619;DHT22;5865;48.776;9.280;2022-12-29T10:30:14;13.00;99.90
11619;DHT22;5865;48.776;9.280;2022-12-29T10:32:57;12.90;99.90
11619;DHT22;5865;48.776;9.280;2022-12-29T10:35:26;13.00;99.90
11619;DHT22;5865;48.776;9.280;2022-12-29T10:37:59;13.00;99.90
11619;DHT22;5865;48.776;9.280;2022-12-29T10:40:32;13.00;99.90
11619;DHT22;5865;48.776;9.280;2022-12-29T10:43:17;13.20;99.90
11619;DHT22;5865;48.776;9.280;2022-12-29T10:45:47;13.30;99.90
11619;DHT22;5865;48.776;9.280;2022-12-29T10:50:55;13.30;99.90
11619;DHT22;5865;48.776;9.280;2022-12-29T10:53:27;13.50;99.90
11619;DHT22;5865;48.776;9.280;2022-12-29T10:55:55;13.80;99.90
11619;DHT22;5865;48.776;9.280;2022-12-29T10:58:23;14.10;99.90
11619;DHT22;5865;48.776;9.280;2022-12-29T11:00:52;14.60;99.90
11619;DHT22;5865;48.776;9.280;2022-12-29T11:03:34;14.90;99.90
11619;DHT22;5865;48.776;9.280;2022-12-29T11:11:08;14.80;99.90
11619;DHT22;5865;48.776;9.280;2022-12-29T11:13:48;14.40;99.90
11619;DHT22;5865;48.776;9.280;2022-12-29T11:21:28;13.70;99.90
11619;DHT22;5865;48.776;9.280;2022-12-29T11:24:00;13.80;99.90
11619;DHT22;5865;48.776;9.280;2022-12-29T11:29:22;13.70;99.90
11619;DHT22;5865;48.776;9.280;2022-12-29T11:31:51;13.60;99.90
11619;DHT22;5865;48.776;9.280;2022-12-29T11:34:21;13.50;99.90
11619;DHT22;5865;48.776;9.280;2022-12-29T11:36:50;13.50;99.90
11619;DHT22;5865;48.776;9.280;2022-12-29T11:39:28;13.50;99.90
11619;DHT22;5865;48.776;9.280;2022-12-29T11:41:56;13.50;99.90
11619;DHT22;5865;48.776;9.280;2022-12-29T11:46:52;13.60;99.90
11619;DHT22;5865;48.776;9.280;2022-12-29T11:49:22;13.50;99.90
11619;DHT22;5865;48.776;9.280;2022-12-29T11:51:54;13.30;99.90
11619;DHT22;5865;48.776;9.280;2022-12-29T11:56:53;13.20;99.90
11619;DHT22;5865;48.776;9.280;2022-12-29T11:59:37;13.20;99.90
11619;DHT22;5865;48.776;9.280;2022-12-29T12:02:22;13.20;99.90
11619;DHT22;5865;48.776;9.280;2022-12-29T12:04:56;13.20;99.90
11619;DHT22;5865;48.776;9.280;2022-12-29T12:07:36;13.10;99.90
11619;DHT22;5865;48.776;9.280;2022-12-29T12:10:13;13.00;99.90
11619;DHT22;5865;48.776;9.280;2022-12-29T12:12:48;12.90;99.90
11619;DHT22;5865;48.776;9.280;2022-12-29T12:15:22;12.90;99.90
11619;DHT22;5865;48.776;9.280;2022-12-29T12:18:00;13.00;99.90
11619;DHT22;5865;48.776;9.280;2022-12-29T12:20:38;13.00;99.90
11619;DHT22;5865;48.776;9.280;2022-12-29T12:23:19;13.00;99.90
11619;DHT22;5865;48.776;9.280;2022-12-29T12:25:56;12.90;99.90
11619;DHT22;5865;48.776;9.280;2022-12-29T12:28:32;12.90;99.90
11619;DHT22;5865;48.776;9.280;2022-12-29T12:31:02;13.00;99.90
11619;DHT22;5865;48.776;9.280;2022-12-29T12:33:35;13.10;99.90
11619;DHT22;5865;48.776;9.280;2022-12-29T12:36:19;13.10;99.90
11619;DHT22;5865;48.776;9.280;2022-12-29T12:38:54;13.20;99.90
11619;DHT22;5865;48.776;9.280;2022-12-29T12:41:33;13.20;99.90
11619;DHT22;5865;48.776;9.280;2022-12-29T12:44:10;13.00;99.90
11619;DHT22;5865;48.776;9.280;2022-12-29T12:49:41;12.90;99.90
11619;DHT22;5865;48.776;9.280;2022-12-29T12:55:04;12.80;99.90
11619;DHT22;5865;48.776;9.280;2022-12-29T12:57:47;12.90;99.90
11619;DHT22;5865;48.776;9.280;2022-12-29T13:00:18;12.80;99.90
11619;DHT22;5865;48.776;9.280;2022-12-29T13:08:06;13.10;99.90
11619;DHT22;5865;48.776;9.280;2022-12-29T13:10:42;13.20;99.90
11619;DHT22;5865;48.776;9.280;2022-12-29T13:16:02;12.90;99.90
11619;DHT22;5865;48.776;9.280;2022-12-29T13:18:36;12.80;99.90
11619;DHT22;5865;48.776;9.280;2022-12-29T13:21:09;12.70;99.90
11619;DHT22;5865;48.776;9.280;2022-12-29T13:23:43;12.80;99.90
11619;DHT22;5865;48.776;9.280;2022-12-29T13:26:16;12.90;99.90
11619;DHT22;5865;48.776;9.280;2022-12-29T13:28:54;13.00;99.90
11619;DHT22;5865;48.776;9.280;2022-12-29T13:31:28;12.90;99.90
11619;DHT22;5865;48.776;9.280;2022-12-29T13:34:03;12.90;99.90
11619;DHT22;5865;48.776;9.280;2022-12-29T13:36:40;12.90;99.90
11619;DHT22;5865;48.776;9.280;2022-12-29T13:39:12;12.70;99.90
11619;DHT22;5865;48.776;9.280;2022-12-29T13:44:15;12.60;99.90
11619;DHT22;5865;48.776;9.280;2022-12-29T13:46:45;12.60;99.90
11619;DHT22;5865;48.776;9.280;2022-12-29T13:49:17;12.60;99.90
11619;DHT22;5865;48.776;9.280;2022-12-29T13:51:48;12.60;99.90
11619;DHT22;5865;48.776;9.280;2022-12-29T13:54:27;12.60;99.90
11619;DHT22;5865;48.776;9.280;2022-12-29T13:57:02;12.60;99.90
11619;DHT22;5865;48.776;9.280;2022-12-29T13:59:38;12.60;99.90
11619;DHT22;5865;48.776;9.280;2022-12-29T14:02:15;12.60;99.90
11619;DHT22;5865;48.776;9.280;2022-12-29T14:04:56;12.50;99.90
11619;DHT22;5865;48.776;9.280;2022-12-29T14:09:52;12.70;99.90
11619;DHT22;5865;48.776;9.280;2022-12-29T14:12:32;12.90;99.90
11619;DHT22;5865;48.776;9.280;2022-12-29T14:15:14;13.60;99.90
11619;DHT22;5865;48.776;9.280;2022-12-29T14:18:02;14.30;99.90
11619;DHT22;5865;48.776;9.280;2022-12-29T14:23:00;14.00;99.90
11619;DHT22;5865;48.776;9.280;2022-12-29T14:25:53;13.00;99.90
11619;DHT22;5865;48.776;9.280;2022-12-29T14:28:23;12.90;99.90
11619;DHT22;5865;48.776;9.280;2022-12-29T14:30:54;12.60;99.90
11619;DHT22;5865;48.776;9.280;2022-12-29T14:33:22;12.40;99.90
11619;DHT22;5865;48.776;9.280;2022-12-29T14:38:24;13.10;99.90
11619;DHT22;5865;48.776;9.280;2022-12-29T14:40:52;13.40;99.90
11619;DHT22;5865;48.776;9.280;2022-12-29T14:46:08;12.90;99.90
11619;DHT22;5865;48.776;9.280;2022-12-29T14:48:38;12.40;99.90
11619;DHT22;5865;48.776;9.280;2022-12-29T14:51:29;12.10;99.90
11619;DHT22;5865;48.776;9.280;2022-12-29T14:53:57;12.10;99.90
11619;DHT22;5865;48.776;9.280;2022-12-29T14:56:26;11.80;99.90
11619;DHT22;5865;48.776;9.280;2022-12-29T14:58:56;11.80;99.90
11619;DHT22;5865;48.776;9.280;2022-12-29T15:01:30;11.70;99.90
11619;DHT22;5865;48.776;9.280;2022-12-29T15:04:06;11.60;99.90
11619;DHT22;5865;48.776;9.280;2022-12-29T15:09:17;11.50;99.90
11619;DHT22;5865;48.776;9.280;2022-12-29T15:11:50;11.30;99.90
11619;DHT22;5865;48.776;9.280;2022-12-29T15:14:35;11.20;99.90
11619;DHT22;5865;48.776;9.280;2022-12-29T15:19:38;10.90;99.90
11619;DHT22;5865;48.776;9.280;2022-12-29T15:22:05;10.70;99.90
11619;DHT22;5865;48.776;9.280;2022-12-29T15:27:03;10.50;99.90
11619;DHT22;5865;48.776;9.280;2022-12-29T15:29:37;10.60;99.90
11619;DHT22;5865;48.776;9.280;2022-12-29T15:32:23;10.60;99.90
11619;DHT22;5865;48.776;9.280;2022-12-29T15:34:52;10.80;99.90
11619;DHT22;5865;48.776;9.280;2022-12-29T15:37:22;10.80;99.90
11619;DHT22;5865;48.776;9.280;2022-12-29T15:42:31;11.10;99.90
11619;DHT22;5865;48.776;9.280;2022-12-29T15:47:30;11.40;99.90
11619;DHT22;5865;48.776;9.280;2022-12-29T15:50:02;11.40;99.90
11619;DHT22;5865;48.776;9.280;2022-12-29T15:52:32;11.40;99.90
11619;DHT22;5865;48.776;9.280;2022-12-29T15:57:29;11.30;99.90
11619;DHT22;5865;48.776;9.280;2022-12-29T16:02:29;11.50;99.90
11619;DHT22;5865;48.776;9.280;2022-12-29T16:07:28;11.50;99.90
11619;DHT22;5865;48.776;9.280;2022-12-29T16:09:57;11.30;99.90
11619;DHT22;5865;48.776;9.280;2022-12-29T16:12:28;11.10;99.90
11619;DHT22;5865;48.776;9.280;2022-12-29T16:14:58;10.90;99.90
11619;DHT22;5865;48.776;9.280;2022-12-29T16:17:29;10.70;99.90
11619;DHT22;5865;48.776;9.280;2022-12-29T16:19:59;10.30;99.90
11619;DHT22;5865;48.776;9.280;2022-12-29T16:22:30;10.10;99.90
11619;DHT22;5865;48.776;9.280;2022-12-29T16:25:00;10.00;99.90
11619;DHT22;5865;48.776;9.280;2022-12-29T16:27:32;9.90;99.90
11619;DHT22;5865;48.776;9.280;2022-12-29T16:30:05;9.80;99.90
11619;DHT22;5865;48.776;9.280;2022-12-29T16:35:11;9.60;99.90
11619;DHT22;5865;48.776;9.280;2022-12-29T16:40:24;9.50;99.90
11619;DHT22;5865;48.776;9.280;2022-12-29T16:42:56;9.50;99.90
11619;DHT22;5865;48.776;9.280;2022-12-29T16:48:32;9.50;99.90
11619;DHT22;5865;48.776;9.280;2022-12-29T16:51:02;9.60;99.90
11619;DHT22;5865;48.776;9.280;2022-12-29T16:53:33;9.60;99.90
11619;DHT22;5865;48.776;9.280;2022-12-29T16:56:03;9.60;99.90
11619;DHT22;5865;48.776;9.280;2022-12-29T17:03:35;9.50;99.90
11619;DHT22;5865;48.776;9.280;2022-12-29T17:25:32;8.90;99.90
11619;DHT22;5865;48.776;9.280;2022-12-29T17:28:03;8.90;99.90
11619;DHT22;5865;48.776;9.280;2022-12-29T17:30:32;8.90;99.90
11619;DHT22;5865;48.776;9.280;2022-12-29T17:33:04;8.70;99.90
11619;DHT22;5865;48.776;9.280;2022-12-29T17:35:34;8.70;99.90
11619;DHT22;5865;48.776;9.280;2022-12-29T17:38:02;8.70;99.90
11619;DHT22;5865;48.776;9.280;2022-12-29T17:40:31;8.70;99.90
11619;DHT22;5865;48.776;9.280;2022-12-29T17:43:00;8.60;99.90
11619;DHT22;5865;48.776;9.280;2022-12-29T17:45:30;8.60;99.90
11619;DHT22;5865;48.776;9.280;2022-12-29T17:47:59;8.60;99.90
11619;DHT22;5865;48.776;9.280;2022-12-29T17:50:29;8.60;99.90
11619;DHT22;5865;48.776;9.280;2022-12-29T17:52:59;8.60;99.90
11619;DHT22;5865;48.776;9.280;2022-12-29T17:55:29;8.60;99.90
11619;DHT22;5865;48.776;9.280;2022-12-29T17:57:56;8.50;99.90
11619;DHT22;5865;48.776;9.280;2022-12-29T18:00:25;8.50;99.90
11619;DHT22;5865;48.776;9.280;2022-12-29T18:02:53;8.50;99.90
11619;DHT22;5865;48.776;9.280;2022-12-29T18:05:24;8.50;99.90
11619;DHT22;5865;48.776;9.280;2022-12-29T18:07:54;8.50;99.90
11619;DHT22;5865;48.776;9.280;2022-12-29T18:10:24;8.50;99.90
11619;DHT22;5865;48.776;9.280;2022-12-29T18:12:58;8.50;99.90
11619;DHT22;5865;48.776;9.280;2022-12-29T18:15:29;8.60;99.90
11619;DHT22;5865;48.776;9.280;2022-12-29T18:18:00;8.60;99.90
11619;DHT22;5865;48.776;9.280;2022-12-29T18:20:29;8.60;99.90
11619;DHT22;5865;48.776;9.280;2022-12-29T18:22:57;8.60;99.90
11619;DHT22;5865;48.776;9.280;2022-12-29T18:25:28;8.70;99.90
11619;DHT22;5865;48.776;9.280;2022-12-29T18:27:59;8.70;99.90
11619;DHT22;5865;48.776;9.280;2022-12-29T18:30:27;8.70;99.90
11619;DHT22;5865;48.776;9.280;2022-12-29T18:32:55;8.80;99.90
11619;DHT22;5865;48.776;9.280;2022-12-29T18:35:25;8.70;99.90
11619;DHT22;5865;48.776;9.280;2022-12-29T18:37:55;8.70;99.90
11619;DHT22;5865;48.776;9.280;2022-12-29T18:40:23;8.60;99.90
11619;DHT22;5865;48.776;9.280;2022-12-29T18:42:50;8.60;99.90
11619;DHT22;5865;48.776;9.280;2022-12-29T18:45:21;8.50;99.90
11619;DHT22;5865;48.776;9.280;2022-12-29T18:47:50;8.40;99.90
11619;DHT22;5865;48.776;9.280;2022-12-29T18:50:18;8.40;99.90
11619;DHT22;5865;48.776;9.280;2022-12-29T18:52:47;8.40;99.90
11619;DHT22;5865;48.776;9.280;2022-12-29T18:55:16;8.30;99.90
11619;DHT22;5865;48.776;9.280;2022-12-29T18:57:46;8.30;99.90
11619;DHT22;5865;48.776;9.280;2022-12-29T19:00:14;8.30;99.90
11619;DHT22;5865;48.776;9.280;2022-12-29T19:02:44;8.20;99.90
11619;DHT22;5865;48.776;9.280;2022-12-29T19:05:18;8.20;99.90
11619;DHT22;5865;48.776;9.280;2022-12-29T19:07:46;8.20;99.90
11619;DHT22;5865;48.776;9.280;2022-12-29T19:10:13;8.20;99.90
11619;DHT22;5865;48.776;9.280;2022-12-29T19:12:42;8.20;99.90
11619;DHT22;5865;48.776;9.280;2022-12-29T19:15:20;8.20;99.90
11619;DHT22;5865;48.776;9.280;2022-12-29T19:17:50;8.20;99.90
11619;DHT22;5865;48.776;9.280;2022-12-29T19:20:36;8.20;99.90
11619;DHT22;5865;48.776;9.280;2022-12-29T19:23:07;8.20;99.90
11619;DHT22;5865;48.776;9.280;2022-12-29T19:25:37;8.20;99.90
11619;DHT22;5865;48.776;9.280;2022-12-29T19:28:05;8.20;99.90
11619;DHT22;5865;48.776;9.280;2022-12-29T19:30:32;8.10;99.90
11619;DHT22;5865;48.776;9.280;2022-12-29T19:33:03;8.10;99.90
11619;DHT22;5865;48.776;9.280;2022-12-29T19:35:31;8.10;99.90
11619;DHT22;5865;48.776;9.280;2022-12-29T19:37:58;8.10;99.90
11619;DHT22;5865;48.776;9.280;2022-12-29T19:40:26;7.90;99.90
11619;DHT22;5865;48.776;9.280;2022-12-29T19:42:55;8.00;99.90
11619;DHT22;5865;48.776;9.280;2022-12-29T19:45:22;7.90;99.90
11619;DHT22;5865;48.776;9.280;2022-12-29T19:47:51;7.90;99.90
11619;DHT22;5865;48.776;9.280;2022-12-29T19:50:20;7.80;99.90
11619;DHT22;5865;48.776;9.280;2022-12-29T19:52:49;7.80;99.90
11619;DHT22;5865;48.776;9.280;2022-12-29T19:55:18;7.70;99.90
11619;DHT22;5865;48.776;9.280;2022-12-29T19:57:48;7.80;99.90
11619;DHT22;5865;48.776;9.280;2022-12-29T20:00:16;7.90;99.90
11619;DHT22;5865;48.776;9.280;2022-12-29T20:02:43;7.90;99.90
11619;DHT22;5865;48.776;9.280;2022-12-29T20:05:10;7.80;99.90
11619;DHT22;5865;48.776;9.280;2022-12-29T20:07:39;7.80;99.90
11619;DHT22;5865;48.776;9.280;2022-12-29T20:10:07;7.80;99.90
11619;DHT22;5865;48.776;9.280;2022-12-29T20:12:34;7.70;99.90
11619;DHT22;5865;48.776;9.280;2022-12-29T20:17:32;7.70;99.90
11619;DHT22;5865;48.776;9.280;2022-12-29T20:20:00;7.70;99.90
11619;DHT22;5865;48.776;9.280;2022-12-29T20:22:28;7.60;99.90
11619;DHT22;5865;48.776;9.280;2022-12-29T20:24:58;7.60;99.90
11619;DHT22;5865;48.776;9.280;2022-12-29T20:27:25;7.60;99.90
11619;DHT22;5865;48.776;9.280;2022-12-29T20:29:53;7.60;99.90
11619;DHT22;5865;48.776;9.280;2022-12-29T20:32:21;7.60;99.90
11619;DHT22;5865;48.776;9.280;2022-12-29T20:34:51;7.60;99.90
11619;DHT22;5865;48.776;9.280;2022-12-29T20:37:19;7.60;99.90
11619;DHT22;5865;48.776;9.280;2022-12-29T20:39:48;7.60;99.90
11619;DHT22;5865;48.776;9.280;2022-12-29T20:42:18;7.50;99.90
11619;DHT22;5865;48.776;9.280;2022-12-29T20:44:46;7.50;99.90
11619;DHT22;5865;48.776;9.280;2022-12-29T20:47:15;7.50;99.90
11619;DHT22;5865;48.776;9.280;2022-12-29T20:49:42;7.50;99.90
11619;DHT22;5865;48.776;9.280;2022-12-29T20:52:13;7.50;99.90
11619;DHT22;5865;48.776;9.280;2022-12-29T20:54:41;7.50;99.90
11619;DHT22;5865;48.776;9.280;2022-12-29T20:57:10;7.50;99.90
11619;DHT22;5865;48.776;9.280;2022-12-29T20:59:39;7.40;99.90
11619;DHT22;5865;48.776;9.280;2022-12-29T21:02:06;7.40;99.90
11619;DHT22;5865;48.776;9.280;2022-12-29T21:04:33;7.40;99.90
11619;DHT22;5865;48.776;9.280;2022-12-29T21:09:31;7.40;99.90
11619;DHT22;5865;48.776;9.280;2022-12-29T21:11:57;7.40;99.90
11619;DHT22;5865;48.776;9.280;2022-12-29T21:14:24;7.40;99.90
11619;DHT22;5865;48.776;9.280;2022-12-29T21:16:55;7.40;99.90
11619;DHT22;5865;48.776;9.280;2022-12-29T21:19:22;7.30;99.90
11619;DHT22;5865;48.776;9.280;2022-12-29T21:21:50;7.30;99.90
11619;DHT22;5865;48.776;9.280;2022-12-29T21:24:18;7.30;99.90
11619;DHT22;5865;48.776;9.280;2022-12-29T21:26:47;7.30;99.90
11619;DHT22;5865;48.776;9.280;2022-12-29T21:29:14;7.30;99.90
11619;DHT22;5865;48.776;9.280;2022-12-29T21:31:41;7.20;99.90
11619;DHT22;5865;48.776;9.280;2022-12-29T21:34:12;7.20;99.90
11619;DHT22;5865;48.776;9.280;2022-12-29T21:36:40;7.20;99.90
11619;DHT22;5865;48.776;9.280;2022-12-29T21:39:07;7.20;99.90
11619;DHT22;5865;48.776;9.280;2022-12-29T21:41:34;7.20;99.90
11619;DHT22;5865;48.776;9.280;2022-12-29T21:44:02;7.10;99.90
11619;DHT22;5865;48.776;9.280;2022-12-29T21:46:47;7.10;99.90
11619;DHT22;5865;48.776;9.280;2022-12-29T21:49:16;7.10;99.90
11619;DHT22;5865;48.776;9.280;2022-12-29T21:51:44;7.20;99.90
11619;DHT22;5865;48.776;9.280;2022-12-29T21:54:20;7.10;99.90
11619;DHT22;5865;48.776;9.280;2022-12-29T21:57:06;7.10;99.90
11619;DHT22;5865;48.776;9.280;2022-12-29T21:59:35;7.10;99.90
11619;DHT22;5865;48.776;9.280;2022-12-29T22:02:21;7.10;99.90
11619;DHT22;5865;48.776;9.280;2022-12-29T22:07:54;7.10;99.90
11619;DHT22;5865;48.776;9.280;2022-12-29T22:13:24;7.00;99.90
11619;DHT22;5865;48.776;9.280;2022-12-29T22:23:14;7.00;99.90
11619;DHT22;5865;48.776;9.280;2022-12-29T22:25:42;7.00;99.90
11619;DHT22;5865;48.776;9.280;2022-12-29T22:28:09;7.00;99.90
11619;DHT22;5865;48.776;9.280;2022-12-29T22:30:37;6.90;99.90
11619;DHT22;5865;48.776;9.280;2022-12-29T22:38:00;6.80;99.90
11619;DHT22;5865;48.776;9.280;2022-12-29T22:45:22;6.70;99.90
11619;DHT22;5865;48.776;9.280;2022-12-29T22:50:17;6.70;99.90
11619;DHT22;5865;48.776;9.280;2022-12-29T23:02:36;6.70;99.90
11619;DHT22;5865;48.776;9.280;2022-12-29T23:05:03;6.60;99.90
11619;DHT22;5865;48.776;9.280;2022-12-29T23:07:31;6.60;99.90
11619;DHT22;5865;48.776;9.280;2022-12-29T23:12:29;6.60;99.90
11619;DHT22;5865;48.776;9.280;2022-12-29T23:14:56;6.60;99.90
11619;DHT22;5865;48.776;9.280;2022-12-29T23:17:24;6.60;99.90
